Time;durP1;ratioP1;P1;durP2;ratioP2;P2;SDS_P1;SDS_P2;PMS_P1;PMS_P2;Temp;Humidity;BMP_temperature;BMP_pressure;BME280_temperature;BME280_humidity;BME280_pressure;Samples;Min_cycle;Max_cycle;Signal;HPM_P1;HPM_P2
2023/04/10 00:00:32;;;;;;;91.50;52.75;;;6.50;99.90;;;;;;5116130;28;20096;-62
2023/04/10 00:03:02;;;;;;;82.32;51.33;;;6.50;99.90;;;;;;5116243;27;20485;-63
2023/04/10 00:05:27;;;;;;;84.53;51.97;;;6.50;99.90;;;;;;5116336;28;20144;-63
2023/04/10 00:07:53;;;;;;;83.05;52.25;;;6.50;99.90;;;;;;5116141;27;20147;-63
2023/04/10 00:10:18;;;;;;;89.80;53.63;;;6.50;99.90;;;;;;5116040;28;20050;-62
2023/04/10 00:12:44;;;;;;;85.40;53.30;;;6.50;99.90;;;;;;5134353;28;20042;-63
2023/04/10 00:15:10;;;;;;;87.95;53.25;;;6.50;99.90;;;;;;5134293;28;20505;-63
2023/04/10 00:17:36;;;;;;;87.10;53.65;;;6.50;99.90;;;;;;5134630;28;20039;-62
2023/04/10 00:20:03;;;;;;;88.38;52.88;;;6.40;99.90;;;;;;5134556;28;20038;-63
2023/04/10 00:22:29;;;;;;;87.22;54.80;;;6.40;99.90;;;;;;5133465;28;20047;-62
2023/04/10 00:24:54;;;;;;;84.60;51.53;;;6.40;99.90;;;;;;5117892;28;20054;-63
2023/04/10 00:27:20;;;;;;;85.78;53.38;;;6.40;99.90;;;;;;5134560;28;20043;-63
2023/04/10 00:29:45;;;;;;;86.47;52.15;;;6.30;99.90;;;;;;5115951;28;20057;-63
2023/04/10 00:32:11;;;;;;;83.95;51.70;;;6.30;99.90;;;;;;5115760;28;20382;-63
2023/04/10 00:34:36;;;;;;;89.15;53.95;;;6.30;99.90;;;;;;5115720;28;20472;-63
2023/04/10 00:37:02;;;;;;;87.40;52.72;;;6.30;99.90;;;;;;5134343;28;20473;-63
2023/04/10 00:39:27;;;;;;;85.43;52.92;;;6.30;99.90;;;;;;5126592;27;20122;-63
2023/04/10 00:41:53;;;;;;;84.43;52.72;;;6.20;99.90;;;;;;5128575;28;20042;-63
2023/04/10 00:47:59;;;;;;;82.00;49.58;;;6.20;99.90;;;;;;5128317;27;20072;-63
2023/04/10 00:50:25;;;;;;;82.82;50.38;;;6.10;99.90;;;;;;5125860;28;20035;-62
2023/04/10 00:52:52;;;;;;;82.50;49.53;;;6.10;99.90;;;;;;5108410;28;20042;-62
2023/04/10 00:55:17;;;;;;;81.72;49.40;;;6.10;99.90;;;;;;5128012;27;20034;-62
2023/04/10 00:57:45;;;;;;;83.50;50.00;;;6.10;99.90;;;;;;5133586;28;20172;-63
2023/04/10 01:00:12;;;;;;;77.13;47.72;;;6.00;99.90;;;;;;5129009;28;20051;-62
2023/04/10 01:02:38;;;;;;;78.63;48.17;;;6.00;99.90;;;;;;5135769;27;20039;-63
2023/04/10 01:05:04;;;;;;;79.32;47.63;;;5.90;99.90;;;;;;5117271;27;20054;-63
2023/04/10 01:07:56;;;;;;;84.75;47.63;;;5.90;99.90;;;;;;5137808;27;20535;-63
2023/04/10 01:10:50;;;;;;;80.85;49.90;;;5.90;99.90;;;;;;5136628;27;20091;-63
2023/04/10 01:13:34;;;;;;;84.55;49.63;;;5.90;99.90;;;;;;5125729;27;20116;-62
2023/04/10 01:16:15;;;;;;;78.15;47.90;;;5.90;99.90;;;;;;5123212;27;20058;-62
2023/04/10 01:18:49;;;;;;;81.47;47.92;;;5.80;99.90;;;;;;5133308;27;20043;-62
2023/04/10 01:21:16;;;;;;;76.55;45.83;;;5.80;99.90;;;;;;5115313;27;20066;-62
2023/04/10 01:24:19;;;;;;;77.50;46.78;;;5.80;99.90;;;;;;5137064;27;20039;-63
2023/04/10 01:27:11;;;;;;;76.25;47.28;;;5.80;99.90;;;;;;5130799;27;20378;-62
2023/04/10 01:33:20;;;;;;;75.20;45.95;;;5.80;99.90;;;;;;5134078;27;20064;-62
2023/04/10 01:35:49;;;;;;;78.63;46.28;;;5.70;99.90;;;;;;5137207;27;20401;-63
2023/04/10 01:38:20;;;;;;;77.75;47.83;;;5.70;99.90;;;;;;5137296;27;20035;-63
2023/04/10 01:40:50;;;;;;;77.63;47.80;;;5.70;99.90;;;;;;5129417;27;20057;-62
2023/04/10 01:43:16;;;;;;;82.32;47.28;;;5.70;99.90;;;;;;5136848;27;20051;-63
2023/04/10 01:45:44;;;;;;;83.97;46.78;;;5.60;99.90;;;;;;5118472;27;20439;-62
2023/04/10 01:48:10;;;;;;;78.57;47.92;;;5.60;99.90;;;;;;5106155;28;20093;-63
2023/04/10 01:50:37;;;;;;;74.10;46.45;;;5.60;99.90;;;;;;5132004;27;20363;-62
2023/04/10 01:53:05;;;;;;;79.45;46.53;;;5.60;99.90;;;;;;5136638;27;20035;-62
2023/04/10 01:55:32;;;;;;;75.50;45.58;;;5.60;99.90;;;;;;5136785;27;20039;-62
2023/04/10 01:58:00;;;;;;;77.50;47.33;;;5.60;99.90;;;;;;5136752;27;20059;-62
2023/04/10 02:00:26;;;;;;;76.30;47.13;;;5.50;99.90;;;;;;5134929;27;20035;-62
2023/04/10 02:02:51;;;;;;;76.35;46.92;;;5.60;99.90;;;;;;5132436;27;20035;-62
2023/04/10 02:05:17;;;;;;;77.40;46.53;;;5.50;99.90;;;;;;5122337;27;20500;-62
2023/04/10 02:07:48;;;;;;;77.00;47.08;;;5.50;99.90;;;;;;5116054;28;20036;-62
2023/04/10 02:10:21;;;;;;;79.00;47.40;;;5.50;99.90;;;;;;5116088;28;20035;-62
2023/04/10 02:12:59;;;;;;;78.60;47.47;;;5.50;99.90;;;;;;5124568;27;20042;-63
2023/04/10 02:15:29;;;;;;;78.50;47.08;;;5.50;99.90;;;;;;5119560;27;20077;-63
2023/04/10 02:17:57;;;;;;;81.22;47.15;;;5.50;99.90;;;;;;5143706;27;20035;-62
2023/04/10 02:20:24;;;;;;;82.97;48.10;;;5.50;99.90;;;;;;5106392;28;20100;-62
2023/04/10 02:22:50;;;;;;;83.22;48.88;;;5.50;99.90;;;;;;5097760;28;20075;-62
2023/04/10 02:25:16;;;;;;;79.57;47.88;;;5.50;99.90;;;;;;5133098;27;20040;-63
2023/04/10 02:27:42;;;;;;;82.00;48.22;;;5.50;99.90;;;;;;5102242;28;20035;-63
2023/04/10 02:30:08;;;;;;;81.85;49.70;;;5.50;99.90;;;;;;5134202;27;20393;-63
2023/04/10 02:32:34;;;;;;;82.13;48.80;;;5.50;99.90;;;;;;5100254;27;20042;-62
2023/04/10 02:35:00;;;;;;;79.90;49.42;;;5.50;99.90;;;;;;5149286;27;20043;-62
2023/04/10 02:37:26;;;;;;;87.47;51.42;;;5.50;99.90;;;;;;5126267;27;20050;-63
2023/04/10 02:39:53;;;;;;;82.40;50.28;;;5.50;99.90;;;;;;5117259;27;20050;-62
2023/04/10 02:42:19;;;;;;;85.88;49.92;;;5.50;99.90;;;;;;5117477;27;20039;-62
2023/04/10 02:44:45;;;;;;;89.00;50.40;;;5.50;99.90;;;;;;5117401;27;20069;-62
2023/04/10 02:47:11;;;;;;;83.53;49.97;;;5.50;99.90;;;;;;5135734;27;20466;-63
2023/04/10 02:49:36;;;;;;;88.13;51.67;;;5.50;99.90;;;;;;5116388;27;20099;-63
2023/04/10 02:52:02;;;;;;;94.32;54.47;;;5.50;99.90;;;;;;5134467;27;20092;-63
2023/04/10 02:54:28;;;;;;;92.75;52.25;;;5.50;99.90;;;;;;5126699;27;20047;-62
2023/04/10 02:56:54;;;;;;;97.20;52.90;;;5.50;99.90;;;;;;5135739;27;20088;-62
2023/04/10 02:59:20;;;;;;;95.32;54.28;;;5.50;99.90;;;;;;5130283;27;20039;-63
2023/04/10 03:01:46;;;;;;;98.45;54.25;;;5.50;99.90;;;;;;5115172;28;20050;-62
2023/04/10 03:04:12;;;;;;;91.95;53.33;;;5.50;99.90;;;;;;5131291;27;20381;-63
2023/04/10 03:06:37;;;;;;;91.78;53.13;;;5.50;99.90;;;;;;5116909;27;20043;-62
2023/04/10 03:09:03;;;;;;;99.47;54.38;;;5.50;99.90;;;;;;5131278;27;20180;-63
2023/04/10 03:11:29;;;;;;;96.18;54.45;;;5.50;99.90;;;;;;5133570;27;20091;-62
2023/04/10 03:13:57;;;;;;;100.25;54.95;;;5.50;99.90;;;;;;5116802;27;20079;-62
2023/04/10 03:20:03;;;;;;;100.90;53.85;;;5.50;99.90;;;;;;5144292;27;20106;-62
2023/04/10 03:22:31;;;;;;;94.50;51.63;;;5.50;99.90;;;;;;5137515;27;20046;-62
2023/04/10 03:24:56;;;;;;;93.50;52.78;;;5.60;99.90;;;;;;5144283;27;20046;-62
2023/04/10 03:27:22;;;;;;;90.10;51.92;;;5.60;99.90;;;;;;5110313;27;20397;-63
2023/04/10 03:29:48;;;;;;;89.55;50.90;;;5.60;99.90;;;;;;5115863;27;20054;-63
2023/04/10 03:32:14;;;;;;;88.90;50.40;;;5.50;99.90;;;;;;5124198;27;21354;-62
2023/04/10 03:34:39;;;;;;;86.40;48.10;;;5.50;99.90;;;;;;5128385;27;20043;-63
2023/04/10 03:37:05;;;;;;;78.93;47.83;;;5.50;99.90;;;;;;5110308;27;20484;-63
2023/04/10 03:39:30;;;;;;;84.45;49.45;;;5.50;99.90;;;;;;5135045;27;20045;-63
2023/04/10 03:41:56;;;;;;;84.90;48.50;;;5.60;99.90;;;;;;5134817;27;20039;-62
2023/04/10 03:44:21;;;;;;;77.63;45.88;;;5.60;99.90;;;;;;5109461;28;20051;-63
2023/04/10 03:46:47;;;;;;;79.38;46.90;;;5.60;99.90;;;;;;5095787;28;20069;-62
2023/04/10 03:49:12;;;;;;;77.63;45.83;;;5.70;99.90;;;;;;5112979;28;20043;-63
2023/04/10 03:51:38;;;;;;;75.72;45.63;;;5.70;99.90;;;;;;5122788;27;20454;-63
2023/04/10 03:54:04;;;;;;;82.00;47.20;;;5.80;99.90;;;;;;5131754;27;20039;-62
2023/04/10 03:56:29;;;;;;;76.90;45.88;;;5.80;99.90;;;;;;5107385;28;20043;-63
2023/04/10 03:58:55;;;;;;;77.00;45.10;;;5.90;99.90;;;;;;5126255;27;20043;-63
2023/04/10 04:01:21;;;;;;;77.72;46.42;;;6.00;99.90;;;;;;5115831;28;20047;-63
2023/04/10 04:03:46;;;;;;;74.30;44.35;;;6.00;99.90;;;;;;5121857;27;20051;-62
2023/04/10 04:06:12;;;;;;;77.68;44.58;;;6.00;99.90;;;;;;5113992;28;20044;-63
2023/04/10 04:08:38;;;;;;;74.75;43.55;;;6.10;99.90;;;;;;5132948;27;20035;-63
2023/04/10 04:11:04;;;;;;;71.65;43.63;;;6.10;99.90;;;;;;5116181;28;20035;-62
2023/04/10 04:13:30;;;;;;;68.95;42.97;;;6.00;99.90;;;;;;5115967;28;20043;-62
2023/04/10 04:15:55;;;;;;;72.45;43.70;;;6.00;99.90;;;;;;5116091;28;20481;-62
2023/04/10 04:18:21;;;;;;;72.68;42.63;;;6.00;99.90;;;;;;5100808;28;20044;-63
2023/04/10 04:20:46;;;;;;;71.90;43.95;;;6.00;99.90;;;;;;5132552;28;20035;-62
2023/04/10 04:23:12;;;;;;;71.55;42.85;;;5.90;99.90;;;;;;5134083;28;20035;-63
2023/04/10 04:25:38;;;;;;;70.30;43.00;;;6.00;99.90;;;;;;5116083;28;20049;-63
2023/04/10 04:28:03;;;;;;;75.15;43.72;;;6.00;99.90;;;;;;5134594;28;20114;-63
2023/04/10 04:30:29;;;;;;;72.55;42.83;;;6.00;99.90;;;;;;5134356;28;20042;-62
2023/04/10 04:32:54;;;;;;;70.32;42.08;;;6.00;99.90;;;;;;5115984;28;20038;-62
2023/04/10 04:35:20;;;;;;;69.22;41.67;;;6.10;99.90;;;;;;5115729;28;20070;-63
2023/04/10 04:37:46;;;;;;;71.72;40.22;;;6.10;99.90;;;;;;5115338;28;20389;-63
2023/04/10 04:40:11;;;;;;;67.85;40.67;;;6.10;99.90;;;;;;5136234;27;20035;-63
2023/04/10 04:42:37;;;;;;;67.28;39.88;;;6.20;99.90;;;;;;5135484;27;20034;-63
2023/04/10 04:45:03;;;;;;;63.17;37.70;;;6.20;99.90;;;;;;5114535;28;20043;-62
2023/04/10 04:47:28;;;;;;;66.57;39.10;;;6.20;99.90;;;;;;5099148;28;20036;-62
2023/04/10 04:49:54;;;;;;;64.20;37.90;;;6.20;99.90;;;;;;5117903;27;20554;-63
2023/04/10 04:52:19;;;;;;;67.93;37.83;;;6.30;99.90;;;;;;5110434;28;20123;-63
2023/04/10 04:58:26;;;;;;;61.83;36.25;;;6.30;99.90;;;;;;5147304;27;20030;-63
2023/04/10 05:00:52;;;;;;;62.63;36.15;;;6.30;99.90;;;;;;5116637;27;20035;-63
2023/04/10 05:03:17;;;;;;;58.80;36.47;;;6.40;99.90;;;;;;5131363;27;20069;-63
2023/04/10 05:05:43;;;;;;;57.97;34.35;;;6.40;99.90;;;;;;5129766;27;20186;-63
2023/04/10 05:08:09;;;;;;;63.30;35.50;;;6.40;99.90;;;;;;5122043;27;20041;-62
2023/04/10 05:10:35;;;;;;;58.53;34.17;;;6.40;99.90;;;;;;5112859;27;20107;-63
2023/04/10 05:13:00;;;;;;;62.00;34.28;;;6.40;99.90;;;;;;5129845;27;20131;-63
2023/04/10 05:15:26;;;;;;;60.03;34.88;;;6.40;99.90;;;;;;5112569;27;20027;-63
2023/04/10 05:17:52;;;;;;;58.67;34.60;;;6.40;99.90;;;;;;5106149;27;20093;-63
2023/04/10 05:20:18;;;;;;;56.13;32.38;;;6.50;99.90;;;;;;5115142;27;20363;-63
2023/04/10 05:22:44;;;;;;;54.55;32.03;;;6.50;99.90;;;;;;5131967;27;20114;-63
2023/04/10 05:25:10;;;;;;;55.47;33.25;;;6.50;99.90;;;;;;5109137;27;20035;-63
2023/04/10 05:27:35;;;;;;;52.55;31.38;;;6.50;99.90;;;;;;5133159;27;20042;-63
2023/04/10 05:30:02;;;;;;;52.58;31.77;;;6.50;99.90;;;;;;5116951;27;20077;-63
2023/04/10 05:32:28;;;;;;;56.05;31.35;;;6.50;99.90;;;;;;5132683;27;20035;-63
2023/04/10 05:34:53;;;;;;;55.05;30.92;;;6.50;99.90;;;;;;5122541;27;20042;-63
2023/04/10 05:41:00;;;;;;;55.67;31.50;;;6.60;99.90;;;;;;5133090;27;20030;-63
2023/04/10 05:43:25;;;;;;;51.03;30.30;;;6.60;99.90;;;;;;5113765;27;20047;-63
2023/04/10 05:45:51;;;;;;;47.80;28.52;;;6.60;99.90;;;;;;5116340;27;20477;-62
2023/04/10 05:48:16;;;;;;;47.65;28.35;;;6.60;99.90;;;;;;5115617;27;20046;-62
2023/04/10 05:50:42;;;;;;;49.10;28.67;;;6.70;99.90;;;;;;5123716;27;20036;-64
2023/04/10 05:53:12;;;;;;;49.33;28.35;;;6.70;99.90;;;;;;5134101;27;20064;-63
2023/04/10 05:59:18;;;;;;;54.53;30.25;;;6.80;99.90;;;;;;5132499;27;20030;-64
2023/04/10 06:01:46;;;;;;;49.85;29.13;;;6.90;99.90;;;;;;5111328;27;20040;-63
2023/04/10 06:04:11;;;;;;;55.90;31.48;;;7.00;99.90;;;;;;5114876;27;20051;-63
2023/04/10 06:06:37;;;;;;;48.60;29.10;;;7.10;99.90;;;;;;5125715;27;20584;-63
2023/04/10 06:09:03;;;;;;;48.78;28.35;;;7.20;99.90;;;;;;5112975;27;20035;-63
2023/04/10 06:11:28;;;;;;;51.33;29.25;;;7.20;99.90;;;;;;5118423;27;20133;-63
2023/04/10 06:13:54;;;;;;;46.53;27.38;;;7.30;99.90;;;;;;5115885;27;20039;-63
2023/04/10 06:16:20;;;;;;;48.08;28.00;;;7.40;99.90;;;;;;5128510;27;20444;-63
2023/04/10 06:18:46;;;;;;;48.67;28.52;;;7.50;99.90;;;;;;5123520;27;20043;-63
2023/04/10 06:21:12;;;;;;;45.33;27.02;;;7.60;99.90;;;;;;5107377;27;20053;-63
2023/04/10 06:23:38;;;;;;;44.47;26.42;;;7.70;99.90;;;;;;5111972;27;20470;-64
2023/04/10 06:26:03;;;;;;;44.97;26.73;;;7.70;99.90;;;;;;5107009;27;20042;-64
2023/04/10 06:28:29;;;;;;;46.05;26.67;;;7.80;99.90;;;;;;5113447;27;20082;-65
2023/04/10 06:30:56;;;;;;;42.22;25.15;;;7.90;99.90;;;;;;5120936;27;20031;-63
2023/04/10 06:33:21;;;;;;;44.53;26.20;;;7.90;99.90;;;;;;5102742;27;20089;-64
2023/04/10 06:35:47;;;;;;;46.45;27.08;;;8.00;99.90;;;;;;5125171;27;20035;-64
2023/04/10 06:38:13;;;;;;;43.63;26.50;;;8.00;99.90;;;;;;5130650;27;20452;-63
2023/04/10 06:40:39;;;;;;;45.97;27.77;;;8.10;99.90;;;;;;5113071;27;20035;-63
2023/04/10 06:43:05;;;;;;;46.90;28.63;;;8.20;99.90;;;;;;5105902;27;20035;-65
2023/04/10 06:45:30;;;;;;;43.00;26.35;;;8.30;99.90;;;;;;5108947;27;20091;-64
2023/04/10 06:47:56;;;;;;;47.97;28.13;;;8.40;99.90;;;;;;5108809;27;20117;-63
2023/04/10 06:50:21;;;;;;;47.78;29.33;;;8.50;99.90;;;;;;5110867;27;20042;-64
2023/04/10 06:52:47;;;;;;;48.03;28.63;;;8.50;99.90;;;;;;5113274;27;20088;-63
2023/04/10 06:55:13;;;;;;;49.30;29.88;;;8.60;99.90;;;;;;5130041;27;20067;-64
2023/04/10 06:57:39;;;;;;;46.58;27.67;;;8.70;99.90;;;;;;5108653;27;20039;-64
2023/04/10 07:00:06;;;;;;;46.40;28.02;;;8.80;99.90;;;;;;5114475;27;20051;-64
2023/04/10 07:02:31;;;;;;;47.97;28.23;;;8.90;99.90;;;;;;5108869;27;20042;-64
2023/04/10 07:04:57;;;;;;;47.03;27.75;;;9.00;99.90;;;;;;5131002;27;20088;-64
2023/04/10 07:07:23;;;;;;;45.88;28.15;;;9.10;99.90;;;;;;5107590;27;20042;-64
2023/04/10 07:09:51;;;;;;;45.70;27.77;;;9.20;99.90;;;;;;5118603;27;20031;-63
2023/04/10 07:12:16;;;;;;;42.30;25.65;;;9.30;99.90;;;;;;5116528;27;20412;-64
2023/04/10 07:15:15;;;;;;;44.33;26.48;;;9.40;99.90;;;;;;5145333;27;20127;-63
2023/04/10 07:17:42;;;;;;;51.10;28.42;;;9.40;99.90;;;;;;5105438;27;20122;-63
2023/04/10 07:20:08;;;;;;;43.40;28.05;;;9.50;99.90;;;;;;5130632;27;20062;-63
2023/04/10 07:23:21;;;;;;;47.30;27.90;;;9.70;99.90;;;;;;5115416;27;20075;-63
2023/04/10 07:25:47;;;;;;;44.63;27.48;;;9.90;99.90;;;;;;5110897;27;20062;-63
2023/04/10 07:28:12;;;;;;;42.63;26.38;;;10.10;99.90;;;;;;5119016;27;20047;-63
2023/04/10 07:30:38;;;;;;;44.92;26.27;;;10.30;99.90;;;;;;5107466;27;20049;-64
2023/04/10 07:33:03;;;;;;;41.85;26.58;;;10.40;99.90;;;;;;5116190;27;20044;-65
2023/04/10 07:35:29;;;;;;;42.08;25.10;;;10.50;99.90;;;;;;5125015;27;20102;-64
2023/04/10 07:37:54;;;;;;;41.00;24.63;;;10.70;99.90;;;;;;5110117;27;20075;-65
2023/04/10 07:40:20;;;;;;;37.95;24.23;;;10.80;99.90;;;;;;5112756;27;20079;-64
2023/04/10 07:42:46;;;;;;;36.55;22.48;;;11.00;99.90;;;;;;5115571;27;20081;-65
2023/04/10 07:45:12;;;;;;;36.35;23.33;;;11.20;99.90;;;;;;5134366;27;20039;-64
2023/04/10 07:47:37;;;;;;;39.55;24.27;;;11.30;99.90;;;;;;5114909;27;20032;-64
2023/04/10 07:50:03;;;;;;;38.78;23.65;;;11.50;99.90;;;;;;5096259;27;20031;-65
2023/04/10 07:52:29;;;;;;;40.15;24.08;;;11.70;99.90;;;;;;5096464;27;20047;-66
2023/04/10 07:54:54;;;;;;;39.20;22.92;;;11.90;99.90;;;;;;5124900;27;20740;-65
2023/04/10 07:57:20;;;;;;;35.40;22.17;;;12.10;99.90;;;;;;5126068;27;20045;-63
2023/04/10 07:59:46;;;;;;;34.45;21.95;;;12.20;99.90;;;;;;5133468;27;20061;-64
2023/04/10 08:02:11;;;;;;;34.50;21.95;;;12.30;99.90;;;;;;5112805;27;20149;-65
2023/04/10 08:04:37;;;;;;;36.58;22.63;;;12.30;99.90;;;;;;5114830;27;20074;-65
2023/04/10 08:07:02;;;;;;;33.80;21.88;;;12.30;99.90;;;;;;5130331;27;20039;-64
2023/04/10 08:09:28;;;;;;;34.00;21.65;;;12.30;99.90;;;;;;5130743;27;20039;-63
2023/04/10 08:11:55;;;;;;;32.75;21.02;;;12.40;99.90;;;;;;5100992;28;20043;-66
2023/04/10 08:14:21;;;;;;;33.53;21.35;;;12.40;99.90;;;;;;5094496;28;20126;-65
2023/04/10 08:16:46;;;;;;;35.90;21.75;;;12.50;99.90;;;;;;5103266;28;20122;-64
2023/04/10 08:19:12;;;;;;;33.28;21.15;;;12.50;99.90;;;;;;5132711;28;20055;-65
2023/04/10 08:21:39;;;;;;;32.05;20.40;;;12.60;99.90;;;;;;5113422;28;20118;-64
2023/04/10 08:24:05;;;;;;;32.35;20.02;;;12.60;99.90;;;;;;5111906;28;20050;-65
2023/04/10 08:26:31;;;;;;;32.63;20.42;;;12.70;99.90;;;;;;5126487;27;20038;-64
2023/04/10 08:28:58;;;;;;;32.17;20.13;;;12.80;99.90;;;;;;5125079;27;20035;-65
2023/04/10 08:31:28;;;;;;;31.88;20.33;;;12.90;99.90;;;;;;5109312;28;20450;-64
2023/04/10 08:33:53;;;;;;;30.63;20.02;;;13.00;99.90;;;;;;5119358;28;20043;-65
2023/04/10 08:36:19;;;;;;;31.58;20.42;;;13.10;99.90;;;;;;5113794;27;20391;-64
2023/04/10 08:38:45;;;;;;;32.78;20.08;;;13.20;99.90;;;;;;5123988;27;20075;-64
2023/04/10 08:41:13;;;;;;;30.27;18.90;;;13.30;99.90;;;;;;5095791;27;20073;-64
2023/04/10 08:47:14;;;;;;;28.25;18.05;;;13.50;99.90;;;;;;5130206;27;20385;-64
2023/04/10 08:49:52;;;;;;;27.40;17.08;;;13.60;99.90;;;;;;5112823;28;20050;-65
2023/04/10 08:52:24;;;;;;;24.35;16.08;;;13.60;99.90;;;;;;5111523;28;20542;-65
2023/04/10 08:54:58;;;;;;;26.63;17.42;;;13.70;99.90;;;;;;5121082;28;20478;-65
2023/04/10 08:57:25;;;;;;;25.20;16.08;;;13.80;99.90;;;;;;5131750;28;20135;-65
2023/04/10 08:59:51;;;;;;;23.65;15.27;;;13.80;99.90;;;;;;5121898;27;20513;-64
2023/04/10 09:02:18;;;;;;;25.38;15.63;;;14.00;99.90;;;;;;5114190;28;20043;-65
2023/04/10 09:04:49;;;;;;;21.80;14.90;;;14.10;99.90;;;;;;5105673;28;20448;-65
2023/04/10 09:07:15;;;;;;;21.67;14.05;;;14.10;99.90;;;;;;5092435;28;20105;-65
2023/04/10 09:09:41;;;;;;;21.17;14.23;;;14.20;99.90;;;;;;5113985;28;20127;-65
2023/04/10 09:12:07;;;;;;;22.15;14.88;;;14.30;99.90;;;;;;5114711;28;20547;-65
2023/04/10 09:14:34;;;;;;;20.60;13.60;;;14.40;99.90;;;;;;5132368;28;20039;-65
2023/04/10 09:17:19;;;;;;;23.02;15.50;;;14.40;99.90;;;;;;5111247;28;20359;-65
2023/04/10 09:19:51;;;;;;;21.98;14.82;;;14.60;99.90;;;;;;5105441;27;20426;-65
2023/04/10 09:22:17;;;;;;;19.95;14.77;;;14.70;99.90;;;;;;5131305;27;20036;-65
2023/04/10 09:24:44;;;;;;;21.40;14.00;;;14.80;99.90;;;;;;5132583;27;20062;-65
2023/04/10 09:27:25;;;;;;;22.60;13.95;;;14.90;99.90;;;;;;5131724;27;20039;-66
2023/04/10 09:29:52;;;;;;;19.50;13.90;;;14.90;99.90;;;;;;5113487;27;20035;-65
2023/04/10 09:32:38;;;;;;;20.15;13.25;;;15.00;99.90;;;;;;5100220;27;20118;-65
2023/04/10 09:35:04;;;;;;;17.58;12.13;;;15.00;99.90;;;;;;5130505;27;20039;-65
2023/04/10 09:37:35;;;;;;;19.90;12.40;;;15.00;99.90;;;;;;5134430;27;20035;-65
2023/04/10 09:40:01;;;;;;;18.98;13.07;;;15.10;99.90;;;;;;5108601;28;20039;-65
2023/04/10 09:42:31;;;;;;;18.05;12.43;;;15.20;99.90;;;;;;5098308;27;20451;-64
2023/04/10 09:44:57;;;;;;;19.08;12.48;;;15.30;99.90;;;;;;5096575;28;20067;-64
2023/04/10 09:47:23;;;;;;;17.83;12.63;;;15.40;99.90;;;;;;5103094;27;20043;-65
2023/04/10 09:49:53;;;;;;;17.95;12.23;;;15.50;99.90;;;;;;5114820;27;20039;-65
2023/04/10 09:52:20;;;;;;;18.15;12.50;;;15.50;99.90;;;;;;5134886;27;20063;-65
2023/04/10 09:54:46;;;;;;;18.60;12.38;;;15.60;99.90;;;;;;5120268;27;20047;-65
2023/04/10 09:57:19;;;;;;;19.55;12.35;;;15.70;99.90;;;;;;5116549;27;20104;-65
2023/04/10 09:59:50;;;;;;;20.42;11.65;;;15.90;99.90;;;;;;5114124;27;20062;-64
2023/04/10 10:02:20;;;;;;;16.05;11.25;;;15.90;99.90;;;;;;5125339;27;20524;-65
2023/04/10 10:04:47;;;;;;;16.10;11.52;;;16.00;99.90;;;;;;5105046;27;20054;-65
2023/04/10 10:07:20;;;;;;;17.52;12.00;;;16.00;99.90;;;;;;5130611;27;20042;-65
2023/04/10 10:09:47;;;;;;;19.40;13.23;;;16.00;99.90;;;;;;5110756;27;20414;-66
2023/04/10 10:12:22;;;;;;;17.08;11.82;;;16.00;99.90;;;;;;5134105;27;20121;-65
2023/04/10 10:15:15;;;;;;;18.67;12.48;;;16.00;99.90;;;;;;5108546;27;20455;-64
2023/04/10 10:17:58;;;;;;;18.48;12.60;;;15.90;99.90;;;;;;5111302;27;20171;-65
2023/04/10 10:20:26;;;;;;;16.65;11.57;;;15.90;99.90;;;;;;5094594;28;20043;-67
2023/04/10 10:22:52;;;;;;;16.60;11.40;;;15.90;99.90;;;;;;5096207;27;20183;-65
2023/04/10 10:25:19;;;;;;;17.73;11.52;;;15.90;99.90;;;;;;5086953;27;20469;-65
2023/04/10 10:27:48;;;;;;;18.02;11.80;;;15.90;99.90;;;;;;5133094;27;20041;-66
2023/04/10 10:30:18;;;;;;;18.60;11.60;;;16.00;99.90;;;;;;5115989;27;20043;-64
2023/04/10 10:32:45;;;;;;;14.90;10.98;;;16.00;99.90;;;;;;5094912;28;20111;-65
2023/04/10 10:35:11;;;;;;;18.30;11.65;;;15.90;99.90;;;;;;5103639;27;20085;-65
2023/04/10 10:37:37;;;;;;;16.08;11.00;;;15.90;99.90;;;;;;5113644;27;20505;-64
2023/04/10 10:40:14;;;;;;;16.20;11.30;;;15.90;99.90;;;;;;5112845;27;20043;-65
2023/04/10 10:42:56;;;;;;;16.25;11.32;;;15.80;99.90;;;;;;5125580;27;20035;-65
2023/04/10 10:45:31;;;;;;;16.27;11.30;;;15.80;99.90;;;;;;5125974;27;20054;-65
2023/04/10 10:47:58;;;;;;;13.52;10.30;;;15.90;99.90;;;;;;5134055;27;20041;-65
2023/04/10 10:50:24;;;;;;;17.02;11.02;;;16.00;99.90;;;;;;5115769;27;20099;-65
2023/04/10 10:52:56;;;;;;;14.45;10.45;;;16.00;99.90;;;;;;5124381;27;20035;-64
2023/04/10 10:55:21;;;;;;;16.25;11.02;;;16.10;99.90;;;;;;5130098;27;20050;-64
2023/04/10 10:57:52;;;;;;;13.80;10.10;;;16.10;99.90;;;;;;5115624;27;20050;-65
2023/04/10 11:00:18;;;;;;;15.43;9.93;;;16.20;99.90;;;;;;5114444;27;20043;-64
2023/04/10 11:02:44;;;;;;;13.82;10.15;;;16.20;99.90;;;;;;5114729;27;20047;-65
2023/04/10 11:05:30;;;;;;;14.48;10.25;;;16.30;99.90;;;;;;5131108;27;20083;-65
2023/04/10 11:07:58;;;;;;;15.35;9.95;;;16.30;99.90;;;;;;5090517;27;20031;-65
2023/04/10 11:11:01;;;;;;;14.40;10.70;;;16.30;99.90;;;;;;5127433;27;20042;-65
2023/04/10 11:13:27;;;;;;;;;;;16.40;99.90;;;;;;5097592;27;20118;-64
2023/04/10 11:15:55;;;;;;;14.40;10.35;;;16.40;99.90;;;;;;5128499;27;20005;-65
2023/04/10 11:18:47;;;;;;;15.40;10.35;;;16.40;99.90;;;;;;5120809;27;20041;-65
2023/04/10 11:21:13;;;;;;;14.90;10.10;;;16.40;99.90;;;;;;5104949;27;20394;-65
2023/04/10 11:23:54;;;;;;;14.18;10.40;;;16.40;99.90;;;;;;5113168;27;20035;-64
2023/04/10 11:26:39;;;;;;;15.20;10.30;;;16.30;99.90;;;;;;5126773;27;20072;-65
2023/04/10 11:29:11;;;;;;;15.50;10.32;;;16.30;99.90;;;;;;5131092;27;20504;-66
2023/04/10 11:31:37;;;;;;;15.27;10.25;;;16.30;99.90;;;;;;5132054;27;20058;-64
2023/04/10 11:34:06;;;;;;;15.32;10.75;;;16.30;99.90;;;;;;5113890;27;20035;-64
2023/04/10 11:36:40;;;;;;;14.68;10.02;;;16.40;99.90;;;;;;5132802;27;20035;-65
2023/04/10 11:39:14;;;;;;;15.00;10.20;;;16.60;99.90;;;;;;5132592;27;20460;-64
2023/04/10 11:41:48;;;;;;;14.52;10.23;;;16.70;99.90;;;;;;5113935;27;20155;-64
2023/04/10 11:44:25;;;;;;;14.82;9.77;;;16.90;99.90;;;;;;5122601;27;20047;-65
2023/04/10 11:46:51;;;;;;;13.52;9.77;;;16.90;99.90;;;;;;5112972;27;20047;-65
2023/04/10 11:49:19;;;;;;;14.98;9.95;;;17.00;99.90;;;;;;5131157;27;20039;-64
2023/04/10 11:51:47;;;;;;;14.68;9.82;;;17.20;99.90;;;;;;5112425;27;20126;-65
2023/04/10 11:54:16;;;;;;;16.58;10.63;;;17.30;99.90;;;;;;5131081;27;20064;-64
2023/04/10 11:56:55;;;;;;;14.52;10.68;;;17.40;99.90;;;;;;5111945;27;20485;-65
2023/04/10 11:59:21;;;;;;;14.98;10.38;;;17.60;99.90;;;;;;5114416;27;20049;-65
2023/04/10 12:01:46;;;;;;;14.00;9.95;;;17.60;99.90;;;;;;5132009;27;20067;-65
2023/04/10 12:04:17;;;;;;;12.50;9.57;;;17.60;99.90;;;;;;5131958;27;20601;-64
2023/04/10 12:06:44;;;;;;;15.90;10.48;;;17.60;99.90;;;;;;5110500;27;20073;-64
2023/04/10 12:09:17;;;;;;;13.35;10.10;;;17.70;99.90;;;;;;5123370;27;20170;-65
2023/04/10 12:11:50;;;;;;;15.35;9.98;;;17.90;99.90;;;;;;5128476;27;20063;-65
2023/04/10 12:14:16;;;;;;;13.32;9.73;;;18.00;99.90;;;;;;5101310;28;20047;-65
2023/04/10 12:16:43;;;;;;;15.50;9.90;;;18.00;99.90;;;;;;5108534;28;20147;-66
2023/04/10 12:19:10;;;;;;;13.52;9.77;;;18.00;99.90;;;;;;5118843;27;20035;-66
2023/04/10 12:21:36;;;;;;;13.60;10.02;;;17.90;99.90;;;;;;5101758;28;20082;-65
2023/04/10 12:24:02;;;;;;;13.45;9.70;;;17.70;99.90;;;;;;5092754;28;20047;-66
2023/04/10 12:26:28;;;;;;;15.40;9.93;;;17.60;99.90;;;;;;5095738;27;20035;-65
2023/04/10 12:28:56;;;;;;;15.10;9.55;;;17.50;99.90;;;;;;5125857;27;20195;-65
2023/04/10 12:31:33;;;;;;;14.90;9.82;;;17.40;99.90;;;;;;5108905;28;20043;-65
2023/04/10 12:33:59;;;;;;;15.23;10.25;;;17.30;99.90;;;;;;5123243;28;20039;-66
2023/04/10 12:36:28;;;;;;;14.52;10.43;;;17.20;99.90;;;;;;5123576;27;20050;-65
2023/04/10 12:38:57;;;;;;;15.82;10.52;;;17.10;99.90;;;;;;5129220;28;20110;-65
2023/04/10 12:41:25;;;;;;;13.18;9.82;;;17.10;99.90;;;;;;5109514;28;20122;-65
2023/04/10 12:43:52;;;;;;;19.80;10.32;;;17.00;99.90;;;;;;5125740;27;20043;-65
2023/04/10 12:46:36;;;;;;;14.50;10.50;;;17.00;99.90;;;;;;5122319;28;20035;-65
2023/04/10 12:49:10;;;;;;;15.27;9.75;;;17.00;99.90;;;;;;5130352;28;20038;-65
2023/04/10 12:51:46;;;;;;;13.32;10.00;;;17.10;99.90;;;;;;5109046;28;20094;-65
2023/04/10 12:54:34;;;;;;;16.35;9.88;;;17.10;99.90;;;;;;5126403;27;20040;-65
2023/04/10 12:57:02;;;;;;;13.60;9.95;;;17.10;99.90;;;;;;5092351;28;20081;-65
2023/04/10 12:59:29;;;;;;;12.85;9.30;;;17.10;99.90;;;;;;5116343;27;20047;-64
2023/04/10 13:01:55;;;;;;;17.15;9.70;;;17.10;99.90;;;;;;5130734;27;20031;-64
2023/04/10 13:04:20;;;;;;;13.13;9.63;;;17.20;99.90;;;;;;5115974;27;20508;-65